createdAt,value
2023-02-18T00:01:26.603Z,13.20
2023-02-18T00:04:00.548Z,13.21
2023-02-18T00:06:37.067Z,13.27
2023-02-18T00:09:10.030Z,13.31
2023-02-18T00:11:42.936Z,13.37
2023-02-18T00:14:18.046Z,13.45
2023-02-18T00:16:50.884Z,13.51
2023-02-18T00:19:24.107Z,13.57
2023-02-18T00:21:58.299Z,13.65
2023-02-18T00:24:31.201Z,13.70
2023-02-18T00:27:04.101Z,13.76
2023-02-18T00:29:37.053Z,13.80
2023-02-18T00:32:10.007Z,13.85
2023-02-18T00:34:42.946Z,13.91
2023-02-18T00:37:17.206Z,13.96
2023-02-18T00:39:50.142Z,13.98
2023-02-18T00:42:23.100Z,14.00
2023-02-18T00:44:56.174Z,14.02
2023-02-18T00:47:29.047Z,14.05
2023-02-18T00:50:01.941Z,14.07
2023-02-18T00:52:36.455Z,14.10
2023-02-18T00:55:09.656Z,14.12
2023-02-18T00:57:42.527Z,14.13
2023-02-18T01:00:16.697Z,14.16
2023-02-18T01:02:53.996Z,14.18
2023-02-18T01:05:26.988Z,14.18
2023-02-18T01:08:01.314Z,14.22
2023-02-18T01:10:36.512Z,14.22
2023-02-18T01:13:09.996Z,14.23
2023-02-18T01:15:43.826Z,14.24
2023-02-18T01:18:17.006Z,14.22
2023-02-18T01:20:50.168Z,14.22
2023-02-18T01:23:24.742Z,14.20
2023-02-18T01:25:59.437Z,14.14
2023-02-18T01:28:34.145Z,14.09
2023-02-18T01:31:08.809Z,14.03
2023-02-18T01:33:41.813Z,13.95
2023-02-18T01:36:15.079Z,13.87
2023-02-18T01:38:49.419Z,13.79
2023-02-18T01:41:22.758Z,13.70
2023-02-18T01:44:14.491Z,13.64
2023-02-18T01:46:47.615Z,13.51
2023-02-18T01:49:23.976Z,13.44
2023-02-18T01:52:00.180Z,13.38
2023-02-18T01:54:37.085Z,13.34
2023-02-18T01:57:12.993Z,13.29
2023-02-18T01:59:49.377Z,13.25
2023-02-18T02:02:24.012Z,13.24
2023-02-18T02:04:57.606Z,13.26
2023-02-18T02:07:31.231Z,13.26
2023-02-18T02:10:06.505Z,13.28
2023-02-18T02:12:50.824Z,13.34
2023-02-18T02:15:37.098Z,13.36
2023-02-18T02:18:23.324Z,13.42
2023-02-18T02:21:26.301Z,13.48
2023-02-18T02:24:22.987Z,13.56
2023-02-18T02:27:16.345Z,13.62
2023-02-18T02:30:13.681Z,13.69
2023-02-18T02:33:31.106Z,13.77
2023-02-18T02:36:14.058Z,13.84
2023-02-18T02:38:56.840Z,13.89
2023-02-18T02:41:44.373Z,13.96
2023-02-18T02:44:22.651Z,14.02
2023-02-18T02:47:02.696Z,14.06
2023-02-18T02:49:40.598Z,14.12
2023-02-18T02:52:22.563Z,14.16
2023-02-18T02:54:55.415Z,14.18
2023-02-18T02:57:52.611Z,14.23
2023-02-18T03:00:40.124Z,14.27
2023-02-18T03:03:40.743Z,14.31
2023-02-18T03:06:38.622Z,14.34
2023-02-18T03:09:20.882Z,14.34
2023-02-18T03:12:01.110Z,14.34
2023-02-18T03:14:44.814Z,14.33
2023-02-18T03:17:24.414Z,14.32
2023-02-18T03:20:04.141Z,14.28
2023-02-18T03:22:42.582Z,14.26
2023-02-18T03:25:18.119Z,14.23
2023-02-18T03:27:54.451Z,14.20
2023-02-18T03:30:31.667Z,14.17
2023-02-18T03:33:08.580Z,14.15
2023-02-18T03:35:43.357Z,14.12
2023-02-18T03:38:21.386Z,14.10
2023-02-18T03:40:55.987Z,14.06
2023-02-18T03:43:30.340Z,14.02
2023-02-18T03:46:04.731Z,13.94
2023-02-18T03:48:37.614Z,13.88
2023-02-18T03:51:10.656Z,13.84
2023-02-18T03:53:43.546Z,13.80
2023-02-18T03:56:18.194Z,13.76
2023-02-18T03:58:51.148Z,13.73
2023-02-18T04:01:24.301Z,13.71
2023-02-18T04:03:57.530Z,13.72
2023-02-18T04:06:30.858Z,13.72
2023-02-18T04:09:09.357Z,13.72
2023-02-18T04:11:43.734Z,13.75
2023-02-18T04:14:16.691Z,13.74
2023-02-18T04:16:49.621Z,13.73
2023-02-18T04:19:22.550Z,13.75
2023-02-18T04:21:55.433Z,13.74
2023-02-18T04:24:28.367Z,13.76
2023-02-18T04:27:02.714Z,13.76
2023-02-18T04:29:35.665Z,13.76
2023-02-18T04:32:08.678Z,13.76
2023-02-18T04:34:41.609Z,13.78
2023-02-18T04:37:14.597Z,13.76
2023-02-18T04:39:47.507Z,13.74
2023-02-18T04:42:21.808Z,13.74
2023-02-18T04:44:55.004Z,13.68
2023-02-18T04:47:28.083Z,13.64
2023-02-18T04:50:01.062Z,13.60
2023-02-18T04:52:34.098Z,13.54
2023-02-18T04:55:07.902Z,13.46
2023-02-18T04:57:42.387Z,13.40
2023-02-18T05:00:17.667Z,13.36
2023-02-18T05:02:50.591Z,13.29
2023-02-18T05:05:23.678Z,13.23
2023-02-18T05:07:56.602Z,13.20
2023-02-18T05:10:29.475Z,13.16
2023-02-18T05:13:03.962Z,13.16
2023-02-18T05:15:36.921Z,13.12
2023-02-18T05:18:10.221Z,13.12
2023-02-18T05:20:43.065Z,13.12
2023-02-18T05:23:16.041Z,13.14
2023-02-18T05:25:49.031Z,13.18
2023-02-18T05:28:23.512Z,13.23
2023-02-18T05:30:56.400Z,13.25
2023-02-18T05:33:29.318Z,13.29
2023-02-18T05:36:02.257Z,13.32
2023-02-18T05:38:35.136Z,13.35
2023-02-18T05:41:08.048Z,13.40
2023-02-18T05:43:56.196Z,13.44
2023-02-18T05:46:29.099Z,13.48
2023-02-18T05:49:02.197Z,13.53
2023-02-18T05:51:35.165Z,13.54
2023-02-18T05:54:08.235Z,13.57
2023-02-18T05:56:41.176Z,13.60
2023-02-18T05:59:16.037Z,13.65
2023-02-18T06:01:49.277Z,13.65
2023-02-18T06:04:22.302Z,13.69
2023-02-18T06:06:55.222Z,13.71
2023-02-18T06:09:28.139Z,13.73
2023-02-18T06:12:01.077Z,13.75
2023-02-18T06:14:35.595Z,13.76
2023-02-18T06:17:08.587Z,13.76
2023-02-18T06:19:41.783Z,13.79
2023-02-18T06:22:14.735Z,13.80
2023-02-18T06:24:47.871Z,13.80
2023-02-18T06:27:20.840Z,13.80
2023-02-18T06:29:55.157Z,13.82
2023-02-18T06:32:28.064Z,13.82
2023-02-18T06:35:00.919Z,13.84
2023-02-18T06:37:34.481Z,13.84
2023-02-18T06:40:09.131Z,13.86
2023-02-18T06:42:42.097Z,13.88
2023-02-18T06:45:16.608Z,13.89
2023-02-18T06:47:49.532Z,13.91
2023-02-18T06:50:22.451Z,13.92
2023-02-18T06:52:55.328Z,13.93
2023-02-18T06:55:28.263Z,13.96
2023-02-18T06:58:01.202Z,13.97
2023-02-18T07:00:35.836Z,14.03
2023-02-18T07:03:09.118Z,14.05
2023-02-18T07:05:42.095Z,14.08
2023-02-18T07:08:14.972Z,14.13
2023-02-18T07:10:48.214Z,14.17
2023-02-18T07:13:21.170Z,14.23
2023-02-18T07:15:55.507Z,14.27
2023-02-18T07:18:28.455Z,14.32
2023-02-18T07:21:01.329Z,14.36
2023-02-18T07:23:34.358Z,14.42
2023-02-18T07:26:09.087Z,14.46
2023-02-18T07:28:43.474Z,14.52
2023-02-18T07:31:18.322Z,14.58
2023-02-18T07:33:51.266Z,14.61
2023-02-18T07:36:24.236Z,14.65
2023-02-18T07:38:57.211Z,14.68
2023-02-18T07:41:30.129Z,14.72
2023-02-18T07:44:03.011Z,14.77
2023-02-18T07:46:40.854Z,14.85
2023-02-18T07:49:13.834Z,14.87
2023-02-18T07:51:48.660Z,14.92
2023-02-18T07:54:21.513Z,14.98
2023-02-18T07:56:55.876Z,15.02
2023-02-18T07:59:28.917Z,15.08
2023-02-18T08:02:03.271Z,15.14
2023-02-18T08:04:36.176Z,15.21
2023-02-18T08:07:09.132Z,15.25
2023-02-18T08:09:42.229Z,15.34
2023-02-18T08:12:15.427Z,15.42
2023-02-18T08:14:48.369Z,15.53
2023-02-18T08:17:22.665Z,15.64
2023-02-18T08:19:55.616Z,15.73
2023-02-18T08:22:28.600Z,15.83
2023-02-18T08:25:01.600Z,15.95
2023-02-18T08:27:34.633Z,16.05
2023-02-18T08:30:09.154Z,16.12
2023-02-18T08:32:43.424Z,16.22
2023-02-18T08:35:16.438Z,16.30
2023-02-18T08:37:52.938Z,16.36
2023-02-18T08:40:27.100Z,16.44
2023-02-18T08:43:00.382Z,16.48
2023-02-18T08:45:35.190Z,16.54
2023-02-18T08:48:13.525Z,16.58
2023-02-18T08:50:53.167Z,16.62
2023-02-18T08:53:26.157Z,16.66
2023-02-18T08:55:59.026Z,16.71
2023-02-18T08:58:31.889Z,16.76
2023-02-18T09:01:07.062Z,16.80
2023-02-18T09:03:42.253Z,16.84
2023-02-18T09:06:15.160Z,16.88
2023-02-18T09:08:48.086Z,16.91
2023-02-18T09:11:21.452Z,16.95
2023-02-18T09:13:54.296Z,17.00
2023-02-18T09:16:28.300Z,17.07
2023-02-18T09:19:02.866Z,17.12
2023-02-18T09:21:35.821Z,17.17
2023-02-18T09:24:09.798Z,17.20
2023-02-18T09:26:42.827Z,17.26
2023-02-18T09:29:16.309Z,17.29
2023-02-18T09:31:49.288Z,17.34
2023-02-18T09:34:23.972Z,17.38
2023-02-18T09:36:56.857Z,17.40
2023-02-18T09:39:30.246Z,17.44
2023-02-18T09:42:05.310Z,17.49
2023-02-18T09:44:42.132Z,17.57
2023-02-18T09:47:19.176Z,17.63
2023-02-18T09:49:58.172Z,17.70
2023-02-18T09:52:33.428Z,17.77
2023-02-18T09:55:19.608Z,17.85
2023-02-18T09:57:54.697Z,17.94
2023-02-18T10:00:33.452Z,18.02
2023-02-18T10:03:12.949Z,18.09
2023-02-18T10:05:57.601Z,18.19
2023-02-18T10:08:34.938Z,18.28
2023-02-18T10:11:16.655Z,18.38
2023-02-18T10:13:49.386Z,18.46
2023-02-18T10:16:24.894Z,18.59
2023-02-18T10:19:00.988Z,18.67
2023-02-18T10:21:36.497Z,18.76
2023-02-18T10:24:23.502Z,18.87
2023-02-18T10:26:57.386Z,18.94
2023-02-18T10:29:32.284Z,19.02
2023-02-18T10:32:14.420Z,19.14
2023-02-18T10:34:50.712Z,19.21
2023-02-18T10:37:52.726Z,19.33
2023-02-18T10:40:33.136Z,19.42
2023-02-18T10:43:15.549Z,19.51
2023-02-18T10:45:56.770Z,19.56
2023-02-18T10:48:50.887Z,19.67
2023-02-18T10:51:27.023Z,19.72
2023-02-18T10:54:02.151Z,19.79
2023-02-18T10:56:42.980Z,19.89
2023-02-18T10:59:20.946Z,19.91
2023-02-18T11:01:59.670Z,19.96
2023-02-18T11:04:38.142Z,19.98
2023-02-18T11:07:16.742Z,19.94
2023-02-18T11:09:53.748Z,19.90
2023-02-18T11:12:31.339Z,19.85
2023-02-18T11:15:18.656Z,19.79
2023-02-18T11:17:54.764Z,19.72
2023-02-18T11:20:31.591Z,19.67
2023-02-18T11:23:18.933Z,19.61
2023-02-18T11:25:59.746Z,19.56
2023-02-18T11:28:43.347Z,19.53
2023-02-18T11:31:23.419Z,19.51
2023-02-18T11:33:59.991Z,19.49
2023-02-18T11:36:36.058Z,19.47
2023-02-18T11:39:20.030Z,19.48
2023-02-18T11:41:59.751Z,19.48
2023-02-18T11:44:35.991Z,19.48
2023-02-18T11:47:23.276Z,19.51
2023-02-18T11:50:15.141Z,19.52
2023-02-18T11:52:50.035Z,19.53
2023-02-18T11:55:25.105Z,19.53
2023-02-18T11:58:01.154Z,19.57
2023-02-18T12:00:41.438Z,19.59
2023-02-18T12:03:24.479Z,19.63
2023-02-18T12:05:59.738Z,19.63
2023-02-18T12:08:39.068Z,19.67
2023-02-18T12:11:18.108Z,19.70
2023-02-18T12:13:56.603Z,19.76
2023-02-18T12:16:38.777Z,19.78
2023-02-18T12:19:34.814Z,19.82
2023-02-18T12:22:19.669Z,19.84
2023-02-18T12:25:04.945Z,19.89
2023-02-18T12:27:44.404Z,19.90
2023-02-18T12:30:38.637Z,19.91
2023-02-18T12:33:20.638Z,19.92
2023-02-18T12:36:05.622Z,19.98
2023-02-18T12:38:56.551Z,19.97
2023-02-18T12:41:59.716Z,20.00
2023-02-18T12:44:45.843Z,20.02
2023-02-18T12:47:56.884Z,20.06
2023-02-18T12:50:55.401Z,20.10
2023-02-18T12:53:46.725Z,20.16
2023-02-18T12:56:47.460Z,20.22
2023-02-18T12:59:41.874Z,20.27
2023-02-18T13:02:40.521Z,20.32
2023-02-18T13:05:25.970Z,20.35
2023-02-18T13:08:13.547Z,20.39
2023-02-18T13:10:57.700Z,20.39
2023-02-18T13:13:36.078Z,20.37
2023-02-18T13:16:13.012Z,20.36
2023-02-18T13:18:51.609Z,20.32
2023-02-18T13:21:26.855Z,20.29
2023-02-18T13:24:02.825Z,20.26
2023-02-18T13:26:36.441Z,20.22
2023-02-18T13:29:23.616Z,20.20
2023-02-18T13:32:10.801Z,20.17
2023-02-18T13:34:49.674Z,20.11
2023-02-18T13:37:34.557Z,20.06
2023-02-18T13:40:15.703Z,20.01
2023-02-18T13:42:52.804Z,19.94
2023-02-18T13:45:29.803Z,19.88
2023-02-18T13:48:02.960Z,19.85
2023-02-18T13:50:44.347Z,19.84
2023-02-18T13:53:25.560Z,19.82
2023-02-18T13:56:03.300Z,19.79
2023-02-18T13:58:41.947Z,19.78
2023-02-18T14:01:22.561Z,19.76
2023-02-18T14:03:59.463Z,19.74
2023-02-18T14:06:36.421Z,19.72
2023-02-18T14:09:37.851Z,19.71
2023-02-18T14:12:25.843Z,19.68
2023-02-18T14:15:00.118Z,19.64
2023-02-18T14:17:48.597Z,19.64
2023-02-18T14:20:34.461Z,19.59
2023-02-18T14:23:14.837Z,19.55
2023-02-18T14:25:57.257Z,19.53
2023-02-18T14:28:41.362Z,19.50
2023-02-18T14:31:32.447Z,19.47
2023-02-18T14:34:39.041Z,19.43
2023-02-18T14:37:27.029Z,19.39
2023-02-18T14:40:13.549Z,19.36
2023-02-18T14:42:56.035Z,19.31
2023-02-18T14:45:41.380Z,19.28
2023-02-18T14:48:35.787Z,19.21
2023-02-18T14:51:09.729Z,19.16
2023-02-18T14:53:45.735Z,19.12
2023-02-18T14:56:21.075Z,19.08
2023-02-18T14:59:00.458Z,19.04
2023-02-18T15:01:35.460Z,18.99
2023-02-18T15:04:08.465Z,18.94
2023-02-18T15:06:41.404Z,18.89
2023-02-18T15:09:16.513Z,18.85
2023-02-18T15:11:53.653Z,18.80
2023-02-18T15:14:32.486Z,18.77
2023-02-18T15:17:07.531Z,18.71
2023-02-18T15:19:44.081Z,18.67
2023-02-18T15:22:20.172Z,18.64
2023-02-18T15:24:55.519Z,18.60
2023-02-18T15:27:30.871Z,18.59
2023-02-18T15:30:19.527Z,18.53
2023-02-18T15:32:53.800Z,18.46
2023-02-18T15:35:31.523Z,18.42
2023-02-18T15:38:05.020Z,18.36
2023-02-18T15:40:40.501Z,18.30
2023-02-18T15:43:18.075Z,18.26
2023-02-18T15:45:56.058Z,18.21
2023-02-18T15:48:36.250Z,18.16
2023-02-18T15:51:17.637Z,18.09
2023-02-18T15:53:55.099Z,18.01
2023-02-18T15:56:37.517Z,17.94
2023-02-18T15:59:17.236Z,17.86
2023-02-18T16:01:53.525Z,17.80
2023-02-18T16:04:32.972Z,17.71
2023-02-18T16:07:22.353Z,17.64
2023-02-18T16:10:17.666Z,17.57
2023-02-18T16:12:54.064Z,17.45
2023-02-18T16:15:30.725Z,17.37
2023-02-18T16:18:07.082Z,17.28
2023-02-18T16:20:41.968Z,17.18
2023-02-18T16:23:16.159Z,17.10
2023-02-18T16:25:50.714Z,17.00
2023-02-18T16:28:27.866Z,16.90
2023-02-18T16:31:00.873Z,16.82
2023-02-18T16:33:36.260Z,16.75
2023-02-18T16:36:15.302Z,16.65
2023-02-18T16:38:48.183Z,16.56
2023-02-18T16:41:21.070Z,16.49
2023-02-18T16:43:54.050Z,16.39
2023-02-18T16:46:27.106Z,16.30
2023-02-18T16:49:01.450Z,16.22
2023-02-18T16:51:36.254Z,16.14
2023-02-18T16:54:11.816Z,16.06
2023-02-18T16:56:44.704Z,15.95
2023-02-18T16:59:17.603Z,15.85
2023-02-18T17:01:50.538Z,15.75
2023-02-18T17:04:24.900Z,15.66
2023-02-18T17:06:58.284Z,15.57
2023-02-18T17:09:31.164Z,15.49
2023-02-18T17:12:05.103Z,15.40
2023-02-18T17:14:38.066Z,15.32
2023-02-18T17:17:13.965Z,15.24
2023-02-18T17:19:48.282Z,15.16
2023-02-18T17:22:21.191Z,15.08
2023-02-18T17:24:54.064Z,14.99
2023-02-18T17:27:26.923Z,14.90
2023-02-18T17:29:59.841Z,14.84
2023-02-18T17:32:32.864Z,14.76
2023-02-18T17:35:07.874Z,14.68
2023-02-18T17:37:40.796Z,14.61
2023-02-18T17:40:18.432Z,14.56
2023-02-18T17:42:51.569Z,14.47
2023-02-18T17:45:29.833Z,14.41
2023-02-18T17:48:03.934Z,14.34
2023-02-18T17:50:38.712Z,14.29
2023-02-18T17:53:11.838Z,14.22
2023-02-18T17:55:46.849Z,14.16
2023-02-18T17:58:19.843Z,14.11
2023-02-18T18:00:55.305Z,14.05
2023-02-18T18:03:28.193Z,14.01
2023-02-18T18:06:04.574Z,13.97
2023-02-18T18:08:37.430Z,13.91
2023-02-18T18:11:14.300Z,13.86
2023-02-18T18:13:47.354Z,13.80
2023-02-18T18:16:21.108Z,13.75
2023-02-18T18:18:54.134Z,13.70
2023-02-18T18:21:32.385Z,13.67
2023-02-18T18:24:05.732Z,13.60
2023-02-18T18:26:38.645Z,13.54
2023-02-18T18:29:11.562Z,13.49
2023-02-18T18:31:44.964Z,13.43
2023-02-18T18:34:17.884Z,13.39
2023-02-18T18:36:52.315Z,13.34
2023-02-18T18:39:25.217Z,13.27
2023-02-18T18:42:00.086Z,13.20
2023-02-18T18:44:32.954Z,13.16
2023-02-18T18:47:05.924Z,13.10
2023-02-18T18:49:39.331Z,13.05
2023-02-18T18:52:17.403Z,13.03
2023-02-18T18:54:50.270Z,12.97
2023-02-18T18:57:23.205Z,12.92
2023-02-18T18:59:56.447Z,12.87
2023-02-18T19:02:29.499Z,12.82
2023-02-18T19:05:03.778Z,12.76
2023-02-18T19:07:38.130Z,12.71
2023-02-18T19:10:11.130Z,12.67
2023-02-18T19:12:44.240Z,12.60
2023-02-18T19:15:20.266Z,12.56
2023-02-18T19:17:54.741Z,12.51
2023-02-18T19:20:30.926Z,12.46
2023-02-18T19:23:05.434Z,12.43
2023-02-18T19:25:38.975Z,12.39
2023-02-18T19:28:14.373Z,12.36
2023-02-18T19:30:47.445Z,12.32
2023-02-18T19:33:20.835Z,12.29
2023-02-18T19:35:53.736Z,12.27
2023-02-18T19:38:28.091Z,12.27
2023-02-18T19:41:08.091Z,12.25
2023-02-18T19:43:41.499Z,12.21
2023-02-18T19:46:16.603Z,12.20
2023-02-18T19:48:51.081Z,12.17
2023-02-18T19:51:24.903Z,12.15
2023-02-18T19:53:59.242Z,12.14
2023-02-18T19:56:32.183Z,12.12
2023-02-18T19:59:05.161Z,12.12
2023-02-18T20:01:38.234Z,12.11
2023-02-18T20:04:11.307Z,12.08
2023-02-18T20:06:44.219Z,12.07
2023-02-18T20:09:18.513Z,12.08
2023-02-18T20:11:52.830Z,12.06
2023-02-18T20:14:27.205Z,12.05
2023-02-18T20:17:00.251Z,12.03
2023-02-18T20:19:34.897Z,12.01
2023-02-18T20:22:10.224Z,11.98
2023-02-18T20:24:44.728Z,11.96
2023-02-18T20:27:17.702Z,11.91
2023-02-18T20:29:51.533Z,11.89
2023-02-18T20:32:24.491Z,11.87
2023-02-18T20:34:57.880Z,11.86
2023-02-18T20:37:30.914Z,11.84
2023-02-18T20:40:05.801Z,11.84
2023-02-18T20:42:38.875Z,11.83
2023-02-18T20:45:12.028Z,11.81
2023-02-18T20:47:44.929Z,11.80
2023-02-18T20:50:17.852Z,11.79
2023-02-18T20:52:50.700Z,11.79
2023-02-18T20:55:25.183Z,11.77
2023-02-18T20:57:58.071Z,11.75
2023-02-18T21:00:31.438Z,11.72
2023-02-18T21:03:04.676Z,11.72
2023-02-18T21:05:37.992Z,11.68
2023-02-18T21:08:10.865Z,11.66
2023-02-18T21:10:45.237Z,11.65
2023-02-18T21:13:18.193Z,11.62
2023-02-18T21:15:51.858Z,11.58
2023-02-18T21:18:24.760Z,11.57
2023-02-18T21:20:57.717Z,11.53
2023-02-18T21:23:30.632Z,11.51
2023-02-18T21:26:06.496Z,11.53
2023-02-18T21:28:39.792Z,11.48
2023-02-18T21:31:17.743Z,11.47
2023-02-18T21:33:50.899Z,11.45
2023-02-18T21:36:24.230Z,11.42
2023-02-18T21:38:58.961Z,11.41
2023-02-18T21:41:35.277Z,11.38
2023-02-18T21:44:08.632Z,11.35
2023-02-18T21:46:41.939Z,11.32
2023-02-18T21:49:15.694Z,11.30
2023-02-18T21:52:00.909Z,11.29
2023-02-18T21:54:36.116Z,11.25
2023-02-18T21:57:12.739Z,11.24
2023-02-18T21:59:46.355Z,11.22
2023-02-18T22:02:21.456Z,11.21
2023-02-18T22:04:54.700Z,11.22
2023-02-18T22:07:28.842Z,11.21
2023-02-18T22:10:02.102Z,11.19
2023-02-18T22:12:36.631Z,11.21
2023-02-18T22:15:10.160Z,11.18
2023-02-18T22:17:43.051Z,11.15
2023-02-18T22:20:15.997Z,11.16
2023-02-18T22:22:49.038Z,11.12
2023-02-18T22:25:21.937Z,11.11
2023-02-18T22:27:56.268Z,11.10
2023-02-18T22:30:29.249Z,11.08
2023-02-18T22:33:02.139Z,11.07
2023-02-18T22:35:35.092Z,11.04
2023-02-18T22:38:08.046Z,11.03
2023-02-18T22:40:40.902Z,11.01
2023-02-18T22:43:15.222Z,11.00
2023-02-18T22:45:48.105Z,10.99
2023-02-18T22:48:21.189Z,10.96
2023-02-18T22:50:54.190Z,10.93
2023-02-18T22:53:27.182Z,10.93
2023-02-18T22:56:01.546Z,10.92
2023-02-18T22:58:37.498Z,10.91
2023-02-18T23:01:20.418Z,10.92
2023-02-18T23:03:54.638Z,10.91
2023-02-18T23:06:27.663Z,10.91
2023-02-18T23:09:00.624Z,10.88
2023-02-18T23:11:34.194Z,10.89
2023-02-18T23:14:21.838Z,10.90
2023-02-18T23:17:17.846Z,10.90
2023-02-18T23:19:52.815Z,10.92
2023-02-18T23:22:30.407Z,10.94
2023-02-18T23:25:03.732Z,10.95
2023-02-18T23:27:36.648Z,10.96
2023-02-18T23:30:12.595Z,10.98
2023-02-18T23:32:45.538Z,11.00
2023-02-18T23:35:18.723Z,11.01
2023-02-18T23:38:06.549Z,11.02
2023-02-18T23:40:39.497Z,11.00
2023-02-18T23:43:12.432Z,11.00
2023-02-18T23:45:46.747Z,11.01
2023-02-18T23:48:19.585Z,11.02
2023-02-18T23:50:59.840Z,11.05
2023-02-18T23:53:33.888Z,11.03
2023-02-18T23:56:10.632Z,11.06
2023-02-18T23:58:45.810Z,11.05
